Ferryhill, United Kingdom
Current Conditions -  °F | °C
As of 8:50 PM on Thursday 27 Nov 2014 (Local Time) from EGNV Reporting Station
Haze Haze  
Wind Chill:   Ceiling: 500
Heat Index:   Visibility: 2.5mi
Dew Point:   Wind: 9mph
Humidity: 100%   Direction: 170°S
Pressure: 29.62"   Gusts: NA
Location:  54.68°N, 1.55°W
Report Text: EGNV 272050Z 17008KT 4000 BR FEW001 SCT003 BKN005 08/08 Q1003
Loading
Personal Weather Stations






























Interactive Weather Map New forecast layout! Learn more

10-Day Weather Forecast

Advertisements
Track Severe Weather on mobile